Terminal Aerodrome Forecast
Issued by NWS

Current Version | Previous Version | Text Only | Print | Product List | Glossary On
Versions: 1 2 3 4 5 6 7 8 9 10 11 12 13 14 15 16 17 18
000
FTUS42 KTAE 030200 AAA
TAFVLD
TAF AMD
KVLD 030251Z 0303/0324 00000KT 6SM -RA SCT015 BKN025
     FM030400 00000KT P6SM SCT120 BKN250
     FM031400 08004KT P6SM FEW040
     FM031800 15004KT P6SM VCTS SCT050CB BKN100
     FM032100 VRB15G25KT 1SM TSRA SCT030CB BKN050=

USA.gov is the U.S. government's official web portal to all federal, state and local government web resources and services.